sensor_id;sensor_type;location;lat;lon;timestamp;temperature;humidity
28654;DHT22;24320;56.980;24.336;2023-03-09T00:00:11;-1.30;99.90
28654;DHT22;24320;56.980;24.336;2023-03-09T00:02:47;-1.30;99.90
28654;DHT22;24320;56.980;24.336;2023-03-09T00:05:16;-1.30;99.90
28654;DHT22;24320;56.980;24.336;2023-03-09T00:07:45;-1.40;99.90
28654;DHT22;24320;56.980;24.336;2023-03-09T00:10:16;-1.40;99.90
28654;DHT22;24320;56.980;24.336;2023-03-09T00:12:46;-1.30;99.90
28654;DHT22;24320;56.980;24.336;2023-03-09T00:15:16;-1.30;99.90
28654;DHT22;24320;56.980;24.336;2023-03-09T00:17:44;-1.30;99.90
28654;DHT22;24320;56.980;24.336;2023-03-09T00:20:14;-1.30;99.90
28654;DHT22;24320;56.980;24.336;2023-03-09T00:22:51;-1.30;99.90
28654;DHT22;24320;56.980;24.336;2023-03-09T00:25:22;-1.30;99.90
28654;DHT22;24320;56.980;24.336;2023-03-09T00:27:52;-1.30;99.90
28654;DHT22;24320;56.980;24.336;2023-03-09T00:30:21;-1.20;99.90
28654;DHT22;24320;56.980;24.336;2023-03-09T00:32:53;-1.20;99.90
28654;DHT22;24320;56.980;24.336;2023-03-09T00:35:23;-1.20;99.90
28654;DHT22;24320;56.980;24.336;2023-03-09T00:37:52;-1.20;99.90
28654;DHT22;24320;56.980;24.336;2023-03-09T00:40:22;-1.20;99.90
28654;DHT22;24320;56.980;24.336;2023-03-09T00:42:51;-1.20;99.90
28654;DHT22;24320;56.980;24.336;2023-03-09T00:45:21;-1.20;99.90
28654;DHT22;24320;56.980;24.336;2023-03-09T00:47:51;-1.20;99.90
28654;DHT22;24320;56.980;24.336;2023-03-09T00:50:20;-1.20;99.90
28654;DHT22;24320;56.980;24.336;2023-03-09T00:52:50;-1.20;99.90
28654;DHT22;24320;56.980;24.336;2023-03-09T00:55:19;-1.30;99.90
28654;DHT22;24320;56.980;24.336;2023-03-09T00:57:47;-1.30;99.90
28654;DHT22;24320;56.980;24.336;2023-03-09T01:00:16;-1.30;99.90
28654;DHT22;24320;56.980;24.336;2023-03-09T01:02:44;-1.30;99.90
28654;DHT22;24320;56.980;24.336;2023-03-09T01:05:15;-1.30;99.90
28654;DHT22;24320;56.980;24.336;2023-03-09T01:07:45;-1.30;99.90
28654;DHT22;24320;56.980;24.336;2023-03-09T01:10:16;-1.30;99.90
28654;DHT22;24320;56.980;24.336;2023-03-09T01:12:47;-1.30;99.90
28654;DHT22;24320;56.980;24.336;2023-03-09T01:15:16;-1.30;99.90
28654;DHT22;24320;56.980;24.336;2023-03-09T01:17:46;-1.30;99.90
28654;DHT22;24320;56.980;24.336;2023-03-09T01:20:16;-1.30;99.90
28654;DHT22;24320;56.980;24.336;2023-03-09T01:22:46;-1.40;99.90
28654;DHT22;24320;56.980;24.336;2023-03-09T01:25:16;-1.30;99.90
28654;DHT22;24320;56.980;24.336;2023-03-09T01:27:46;-1.30;99.90
28654;DHT22;24320;56.980;24.336;2023-03-09T01:30:16;-1.30;99.90
28654;DHT22;24320;56.980;24.336;2023-03-09T01:32:50;-1.30;99.90
28654;DHT22;24320;56.980;24.336;2023-03-09T01:35:22;-1.30;99.90
28654;DHT22;24320;56.980;24.336;2023-03-09T01:37:50;-1.30;99.90
28654;DHT22;24320;56.980;24.336;2023-03-09T01:40:23;-1.30;99.90
28654;DHT22;24320;56.980;24.336;2023-03-09T01:43:48;-1.30;99.90
28654;DHT22;24320;56.980;24.336;2023-03-09T01:49:05;-1.30;99.90
28654;DHT22;24320;56.980;24.336;2023-03-09T01:51:46;-1.40;99.90
28654;DHT22;24320;56.980;24.336;2023-03-09T01:57:09;-1.30;99.90
28654;DHT22;24320;56.980;24.336;2023-03-09T01:59:40;-1.30;99.90
28654;DHT22;24320;56.980;24.336;2023-03-09T02:02:14;-1.30;99.90
28654;DHT22;24320;56.980;24.336;2023-03-09T02:04:52;-1.30;99.90
28654;DHT22;24320;56.980;24.336;2023-03-09T02:07:26;-1.30;99.90
28654;DHT22;24320;56.980;24.336;2023-03-09T02:10:03;-1.30;99.90
28654;DHT22;24320;56.980;24.336;2023-03-09T02:12:33;-1.20;99.90
28654;DHT22;24320;56.980;24.336;2023-03-09T02:15:04;-1.20;99.90
28654;DHT22;24320;56.980;24.336;2023-03-09T02:17:34;-1.30;99.90
28654;DHT22;24320;56.980;24.336;2023-03-09T02:20:16;-1.20;99.90
28654;DHT22;24320;56.980;24.336;2023-03-09T02:22:47;-1.20;99.90
28654;DHT22;24320;56.980;24.336;2023-03-09T02:27:52;-1.30;99.90
28654;DHT22;24320;56.980;24.336;2023-03-09T02:30:25;-1.40;99.90
28654;DHT22;24320;56.980;24.336;2023-03-09T02:33:11;-1.40;99.90
28654;DHT22;24320;56.980;24.336;2023-03-09T02:35:44;-1.40;99.90
28654;DHT22;24320;56.980;24.336;2023-03-09T02:38:14;-1.40;99.90
28654;DHT22;24320;56.980;24.336;2023-03-09T02:40:46;-1.50;99.90
28654;DHT22;24320;56.980;24.336;2023-03-09T02:43:23;-1.50;99.90
28654;DHT22;24320;56.980;24.336;2023-03-09T02:45:56;-1.50;99.90
28654;DHT22;24320;56.980;24.336;2023-03-09T02:48:27;-1.50;99.90
28654;DHT22;24320;56.980;24.336;2023-03-09T02:50:57;-1.60;99.90
28654;DHT22;24320;56.980;24.336;2023-03-09T02:53:28;-1.60;99.90
28654;DHT22;24320;56.980;24.336;2023-03-09T02:55:57;-1.60;99.90
28654;DHT22;24320;56.980;24.336;2023-03-09T02:58:28;-1.70;99.90
28654;DHT22;24320;56.980;24.336;2023-03-09T03:00:58;-1.70;99.90
28654;DHT22;24320;56.980;24.336;2023-03-09T03:03:31;-1.70;99.90
28654;DHT22;24320;56.980;24.336;2023-03-09T03:06:04;-1.70;99.90
28654;DHT22;24320;56.980;24.336;2023-03-09T03:08:35;-1.80;99.90
28654;DHT22;24320;56.980;24.336;2023-03-09T03:11:04;-1.80;99.90
28654;DHT22;24320;56.980;24.336;2023-03-09T03:13:38;-1.80;99.90
28654;DHT22;24320;56.980;24.336;2023-03-09T03:16:11;-1.90;99.90
28654;DHT22;24320;56.980;24.336;2023-03-09T03:18:44;-1.80;99.90
28654;DHT22;24320;56.980;24.336;2023-03-09T03:21:17;-1.80;99.90
28654;DHT22;24320;56.980;24.336;2023-03-09T03:23:48;-1.90;99.90
28654;DHT22;24320;56.980;24.336;2023-03-09T03:26:18;-1.90;99.90
28654;DHT22;24320;56.980;24.336;2023-03-09T03:28:50;-1.90;99.90
28654;DHT22;24320;56.980;24.336;2023-03-09T03:31:24;-1.90;99.90
28654;DHT22;24320;56.980;24.336;2023-03-09T03:33:58;-1.90;99.90
28654;DHT22;24320;56.980;24.336;2023-03-09T03:36:29;-2.00;99.90
28654;DHT22;24320;56.980;24.336;2023-03-09T03:38:58;-2.00;99.90
28654;DHT22;24320;56.980;24.336;2023-03-09T03:41:29;-2.00;99.90
28654;DHT22;24320;56.980;24.336;2023-03-09T03:43:59;-2.00;99.90
28654;DHT22;24320;56.980;24.336;2023-03-09T03:46:33;-2.10;99.90
28654;DHT22;24320;56.980;24.336;2023-03-09T03:49:05;-2.10;99.90
28654;DHT22;24320;56.980;24.336;2023-03-09T03:51:38;-2.10;99.90
28654;DHT22;24320;56.980;24.336;2023-03-09T03:54:07;-2.10;99.90
28654;DHT22;24320;56.980;24.336;2023-03-09T03:56:37;-2.20;99.90
28654;DHT22;24320;56.980;24.336;2023-03-09T03:59:08;-2.20;99.90
28654;DHT22;24320;56.980;24.336;2023-03-09T04:01:38;-2.20;99.90
28654;DHT22;24320;56.980;24.336;2023-03-09T04:04:08;-2.30;99.90
28654;DHT22;24320;56.980;24.336;2023-03-09T04:06:42;-2.30;99.90
28654;DHT22;24320;56.980;24.336;2023-03-09T04:09:16;-2.30;99.90
28654;DHT22;24320;56.980;24.336;2023-03-09T04:11:49;-2.40;99.90
28654;DHT22;24320;56.980;24.336;2023-03-09T04:14:24;-2.40;99.90
28654;DHT22;24320;56.980;24.336;2023-03-09T04:16:58;-2.40;99.90
28654;DHT22;24320;56.980;24.336;2023-03-09T04:19:28;-2.50;99.90
28654;DHT22;24320;56.980;24.336;2023-03-09T04:21:58;-2.50;99.90
28654;DHT22;24320;56.980;24.336;2023-03-09T04:24:33;-2.50;99.90
28654;DHT22;24320;56.980;24.336;2023-03-09T04:27:03;-2.50;99.90
28654;DHT22;24320;56.980;24.336;2023-03-09T04:29:37;-2.50;99.90
28654;DHT22;24320;56.980;24.336;2023-03-09T04:32:08;-2.50;99.90
28654;DHT22;24320;56.980;24.336;2023-03-09T04:34:38;-2.50;99.90
28654;DHT22;24320;56.980;24.336;2023-03-09T04:37:15;-2.60;99.90
28654;DHT22;24320;56.980;24.336;2023-03-09T04:39:48;-2.60;99.90
28654;DHT22;24320;56.980;24.336;2023-03-09T04:42:18;-2.60;99.90
28654;DHT22;24320;56.980;24.336;2023-03-09T04:51:18;-2.70;99.90
28654;DHT22;24320;56.980;24.336;2023-03-09T04:53:45;-2.80;99.90
28654;DHT22;24320;56.980;24.336;2023-03-09T04:56:12;-2.80;99.90
28654;DHT22;24320;56.980;24.336;2023-03-09T04:58:39;-2.70;99.90
28654;DHT22;24320;56.980;24.336;2023-03-09T05:01:06;-2.70;99.90
28654;DHT22;24320;56.980;24.336;2023-03-09T05:03:33;-2.70;99.90
28654;DHT22;24320;56.980;24.336;2023-03-09T05:06:00;-2.70;99.90
28654;DHT22;24320;56.980;24.336;2023-03-09T05:08:27;-2.70;99.90
28654;DHT22;24320;56.980;24.336;2023-03-09T05:10:54;-2.70;99.90
28654;DHT22;24320;56.980;24.336;2023-03-09T05:13:20;-2.60;99.90
28654;DHT22;24320;56.980;24.336;2023-03-09T05:15:47;-2.60;99.90
28654;DHT22;24320;56.980;24.336;2023-03-09T05:18:14;-2.60;99.90
28654;DHT22;24320;56.980;24.336;2023-03-09T05:20:41;-2.60;99.90
28654;DHT22;24320;56.980;24.336;2023-03-09T05:23:11;-2.60;99.90
28654;DHT22;24320;56.980;24.336;2023-03-09T05:25:39;-2.60;99.90
28654;DHT22;24320;56.980;24.336;2023-03-09T05:28:05;-2.50;99.90
28654;DHT22;24320;56.980;24.336;2023-03-09T05:30:32;-2.50;99.90
28654;DHT22;24320;56.980;24.336;2023-03-09T05:32:59;-2.50;99.90
28654;DHT22;24320;56.980;24.336;2023-03-09T05:35:26;-2.40;99.90
28654;DHT22;24320;56.980;24.336;2023-03-09T05:37:53;-2.40;99.90
28654;DHT22;24320;56.980;24.336;2023-03-09T05:40:20;-2.40;99.90
28654;DHT22;24320;56.980;24.336;2023-03-09T05:42:48;-2.30;99.90
28654;DHT22;24320;56.980;24.336;2023-03-09T05:45:15;-2.30;99.90
28654;DHT22;24320;56.980;24.336;2023-03-09T05:47:42;-2.20;99.90
28654;DHT22;24320;56.980;24.336;2023-03-09T05:50:10;-2.20;99.90
28654;DHT22;24320;56.980;24.336;2023-03-09T05:52:37;-2.20;99.90
28654;DHT22;24320;56.980;24.336;2023-03-09T05:55:04;-2.10;99.90
28654;DHT22;24320;56.980;24.336;2023-03-09T05:57:31;-2.10;99.90
28654;DHT22;24320;56.980;24.336;2023-03-09T05:59:58;-2.00;99.90
28654;DHT22;24320;56.980;24.336;2023-03-09T06:02:25;-1.90;99.90
28654;DHT22;24320;56.980;24.336;2023-03-09T06:04:52;-1.90;99.90
28654;DHT22;24320;56.980;24.336;2023-03-09T06:07:19;-1.80;99.90
28654;DHT22;24320;56.980;24.336;2023-03-09T06:09:46;-1.80;99.90
28654;DHT22;24320;56.980;24.336;2023-03-09T06:12:13;-1.80;99.90
28654;DHT22;24320;56.980;24.336;2023-03-09T06:14:41;-1.70;99.90
28654;DHT22;24320;56.980;24.336;2023-03-09T06:17:08;-1.70;99.90
28654;DHT22;24320;56.980;24.336;2023-03-09T06:19:35;-1.60;99.90
28654;DHT22;24320;56.980;24.336;2023-03-09T06:22:02;-1.60;99.90
28654;DHT22;24320;56.980;24.336;2023-03-09T06:24:29;-1.60;99.90
28654;DHT22;24320;56.980;24.336;2023-03-09T06:26:57;-1.60;99.90
28654;DHT22;24320;56.980;24.336;2023-03-09T06:29:26;-1.60;99.90
28654;DHT22;24320;56.980;24.336;2023-03-09T06:31:53;-1.50;99.90
28654;DHT22;24320;56.980;24.336;2023-03-09T06:34:20;-1.40;99.90
28654;DHT22;24320;56.980;24.336;2023-03-09T06:36:47;-1.30;99.90
28654;DHT22;24320;56.980;24.336;2023-03-09T06:39:14;-1.20;99.90
28654;DHT22;24320;56.980;24.336;2023-03-09T06:41:41;-1.10;99.90
28654;DHT22;24320;56.980;24.336;2023-03-09T06:44:08;-1.00;99.90
28654;DHT22;24320;56.980;24.336;2023-03-09T06:46:34;-1.00;99.90
28654;DHT22;24320;56.980;24.336;2023-03-09T06:49:01;-0.90;99.90
28654;DHT22;24320;56.980;24.336;2023-03-09T06:51:28;-0.80;99.90
28654;DHT22;24320;56.980;24.336;2023-03-09T06:53:55;-0.60;99.90
28654;DHT22;24320;56.980;24.336;2023-03-09T06:56:22;-0.50;99.90
28654;DHT22;24320;56.980;24.336;2023-03-09T06:58:53;-0.50;99.90
28654;DHT22;24320;56.980;24.336;2023-03-09T07:01:20;-0.50;99.90
28654;DHT22;24320;56.980;24.336;2023-03-09T07:06:18;-0.50;99.90
28654;DHT22;24320;56.980;24.336;2023-03-09T07:08:45;-0.50;99.90
28654;DHT22;24320;56.980;24.336;2023-03-09T07:11:12;-0.60;99.90
28654;DHT22;24320;56.980;24.336;2023-03-09T07:13:39;-0.60;99.90
28654;DHT22;24320;56.980;24.336;2023-03-09T07:16:06;-0.50;99.90
28654;DHT22;24320;56.980;24.336;2023-03-09T07:18:33;-0.50;99.90
28654;DHT22;24320;56.980;24.336;2023-03-09T07:21:02;-0.50;99.90
28654;DHT22;24320;56.980;24.336;2023-03-09T07:23:30;-0.50;99.90
28654;DHT22;24320;56.980;24.336;2023-03-09T07:26:02;-0.60;99.90
28654;DHT22;24320;56.980;24.336;2023-03-09T07:28:30;-0.50;99.90
28654;DHT22;24320;56.980;24.336;2023-03-09T07:30:57;-0.40;99.90
28654;DHT22;24320;56.980;24.336;2023-03-09T07:33:24;0.00;99.90
28654;DHT22;24320;56.980;24.336;2023-03-09T07:35:51;0.30;99.90
28654;DHT22;24320;56.980;24.336;2023-03-09T07:38:18;0.20;99.90
28654;DHT22;24320;56.980;24.336;2023-03-09T07:40:45;0.00;99.90
28654;DHT22;24320;56.980;24.336;2023-03-09T07:43:12;-0.10;99.90
28654;DHT22;24320;56.980;24.336;2023-03-09T07:45:40;-0.10;99.90
28654;DHT22;24320;56.980;24.336;2023-03-09T07:48:07;-0.10;99.90
28654;DHT22;24320;56.980;24.336;2023-03-09T07:50:34;-0.30;99.90
28654;DHT22;24320;56.980;24.336;2023-03-09T07:53:01;-0.30;99.90
28654;DHT22;24320;56.980;24.336;2023-03-09T07:55:28;-0.30;99.90
28654;DHT22;24320;56.980;24.336;2023-03-09T07:57:56;-0.30;99.90
28654;DHT22;24320;56.980;24.336;2023-03-09T08:00:23;-0.20;99.90
28654;DHT22;24320;56.980;24.336;2023-03-09T08:02:50;0.00;99.90
28654;DHT22;24320;56.980;24.336;2023-03-09T08:05:18;-0.10;99.90
28654;DHT22;24320;56.980;24.336;2023-03-09T08:07:45;-0.20;99.90
28654;DHT22;24320;56.980;24.336;2023-03-09T08:10:17;-0.10;99.90
28654;DHT22;24320;56.980;24.336;2023-03-09T08:12:48;-0.20;99.90
28654;DHT22;24320;56.980;24.336;2023-03-09T08:15:16;-0.30;99.90
28654;DHT22;24320;56.980;24.336;2023-03-09T08:17:45;-0.40;99.90
28654;DHT22;24320;56.980;24.336;2023-03-09T08:20:12;-0.50;99.90
28654;DHT22;24320;56.980;24.336;2023-03-09T08:22:39;-0.50;99.90
28654;DHT22;24320;56.980;24.336;2023-03-09T08:25:07;-0.60;99.90
28654;DHT22;24320;56.980;24.336;2023-03-09T08:27:39;-0.70;99.90
28654;DHT22;24320;56.980;24.336;2023-03-09T08:30:07;-0.60;99.90
28654;DHT22;24320;56.980;24.336;2023-03-09T08:32:34;-0.60;99.90
28654;DHT22;24320;56.980;24.336;2023-03-09T08:35:02;-0.50;99.90
28654;DHT22;24320;56.980;24.336;2023-03-09T08:37:29;-0.40;99.90
28654;DHT22;24320;56.980;24.336;2023-03-09T08:39:56;-0.30;99.90
28654;DHT22;24320;56.980;24.336;2023-03-09T08:42:23;-0.10;99.90
28654;DHT22;24320;56.980;24.336;2023-03-09T08:44:50;0.10;99.90
28654;DHT22;24320;56.980;24.336;2023-03-09T08:47:17;0.30;99.90
28654;DHT22;24320;56.980;24.336;2023-03-09T08:49:46;0.40;99.90
28654;DHT22;24320;56.980;24.336;2023-03-09T08:52:14;0.50;99.90
28654;DHT22;24320;56.980;24.336;2023-03-09T08:54:41;0.30;99.90
28654;DHT22;24320;56.980;24.336;2023-03-09T08:57:09;0.10;99.90
28654;DHT22;24320;56.980;24.336;2023-03-09T08:59:36;0.00;99.90
28654;DHT22;24320;56.980;24.336;2023-03-09T09:02:04;0.10;99.90
28654;DHT22;24320;56.980;24.336;2023-03-09T09:04:31;0.40;99.90
28654;DHT22;24320;56.980;24.336;2023-03-09T09:06:58;0.40;99.90
28654;DHT22;24320;56.980;24.336;2023-03-09T09:09:25;0.40;99.90
28654;DHT22;24320;56.980;24.336;2023-03-09T09:11:52;0.20;99.90
28654;DHT22;24320;56.980;24.336;2023-03-09T09:14:19;-0.30;99.90
28654;DHT22;24320;56.980;24.336;2023-03-09T09:16:46;-0.40;99.90
28654;DHT22;24320;56.980;24.336;2023-03-09T09:19:17;-0.20;99.90
28654;DHT22;24320;56.980;24.336;2023-03-09T09:21:44;-0.20;99.90
28654;DHT22;24320;56.980;24.336;2023-03-09T09:24:11;-0.10;99.90
28654;DHT22;24320;56.980;24.336;2023-03-09T09:26:38;0.30;99.90
28654;DHT22;24320;56.980;24.336;2023-03-09T09:29:07;0.70;99.90
28654;DHT22;24320;56.980;24.336;2023-03-09T09:31:34;1.00;99.90
28654;DHT22;24320;56.980;24.336;2023-03-09T09:34:01;0.90;99.90
28654;DHT22;24320;56.980;24.336;2023-03-09T09:36:28;0.80;99.90
28654;DHT22;24320;56.980;24.336;2023-03-09T09:38:55;0.60;99.90
28654;DHT22;24320;56.980;24.336;2023-03-09T09:41:40;0.40;99.90
28654;DHT22;24320;56.980;24.336;2023-03-09T09:44:26;0.50;99.90
28654;DHT22;24320;56.980;24.336;2023-03-09T09:46:56;0.50;99.90
28654;DHT22;24320;56.980;24.336;2023-03-09T09:49:26;0.30;99.90
28654;DHT22;24320;56.980;24.336;2023-03-09T09:52:26;0.20;99.90
28654;DHT22;24320;56.980;24.336;2023-03-09T09:55:28;0.20;99.90
28654;DHT22;24320;56.980;24.336;2023-03-09T10:00:35;0.20;99.90
28654;DHT22;24320;56.980;24.336;2023-03-09T10:03:28;0.10;99.90
28654;DHT22;24320;56.980;24.336;2023-03-09T10:08:53;-0.20;99.90
28654;DHT22;24320;56.980;24.336;2023-03-09T10:11:38;-0.20;99.90
28654;DHT22;24320;56.980;24.336;2023-03-09T10:14:31;-0.20;99.90
28654;DHT22;24320;56.980;24.336;2023-03-09T10:17:15;0.00;99.90
28654;DHT22;24320;56.980;24.336;2023-03-09T10:19:45;0.20;99.90
28654;DHT22;24320;56.980;24.336;2023-03-09T10:24:43;0.30;99.90
28654;DHT22;24320;56.980;24.336;2023-03-09T10:27:22;0.30;99.90
28654;DHT22;24320;56.980;24.336;2023-03-09T10:30:21;0.40;99.90
28654;DHT22;24320;56.980;24.336;2023-03-09T10:33:03;0.20;99.90
28654;DHT22;24320;56.980;24.336;2023-03-09T10:35:44;0.10;99.90
28654;DHT22;24320;56.980;24.336;2023-03-09T10:38:16;-0.10;99.90
28654;DHT22;24320;56.980;24.336;2023-03-09T10:40:47;-0.20;99.90
28654;DHT22;24320;56.980;24.336;2023-03-09T10:43:35;-0.20;99.90
28654;DHT22;24320;56.980;24.336;2023-03-09T10:46:14;-0.20;99.90
28654;DHT22;24320;56.980;24.336;2023-03-09T10:48:43;-0.10;99.90
28654;DHT22;24320;56.980;24.336;2023-03-09T10:53:49;-0.20;99.90
28654;DHT22;24320;56.980;24.336;2023-03-09T10:56:27;-0.20;99.90
28654;DHT22;24320;56.980;24.336;2023-03-09T11:01:29;-0.10;99.90
28654;DHT22;24320;56.980;24.336;2023-03-09T11:06:34;0.00;99.90
28654;DHT22;24320;56.980;24.336;2023-03-09T11:09:13;0.00;99.90
28654;DHT22;24320;56.980;24.336;2023-03-09T11:11:45;0.10;99.90
28654;DHT22;24320;56.980;24.336;2023-03-09T11:14:24;0.00;99.90
28654;DHT22;24320;56.980;24.336;2023-03-09T11:16:54;0.00;99.90
28654;DHT22;24320;56.980;24.336;2023-03-09T11:19:22;0.10;99.90
28654;DHT22;24320;56.980;24.336;2023-03-09T11:22:10;0.30;99.90
28654;DHT22;24320;56.980;24.336;2023-03-09T11:24:45;0.20;99.90
28654;DHT22;24320;56.980;24.336;2023-03-09T11:27:25;0.10;99.90
28654;DHT22;24320;56.980;24.336;2023-03-09T11:30:10;0.10;99.90
28654;DHT22;24320;56.980;24.336;2023-03-09T11:32:40;0.10;99.90
28654;DHT22;24320;56.980;24.336;2023-03-09T11:35:15;0.30;99.90
28654;DHT22;24320;56.980;24.336;2023-03-09T11:37:46;0.60;99.90
28654;DHT22;24320;56.980;24.336;2023-03-09T11:40:17;0.80;99.90
28654;DHT22;24320;56.980;24.336;2023-03-09T11:42:45;0.70;99.90
28654;DHT22;24320;56.980;24.336;2023-03-09T11:45:20;0.50;99.90
28654;DHT22;24320;56.980;24.336;2023-03-09T11:47:58;0.50;99.90
28654;DHT22;24320;56.980;24.336;2023-03-09T11:50:39;0.50;99.90
28654;DHT22;24320;56.980;24.336;2023-03-09T11:53:25;0.50;99.90
28654;DHT22;24320;56.980;24.336;2023-03-09T11:55:59;0.50;99.90
28654;DHT22;24320;56.980;24.336;2023-03-09T11:58:36;0.40;99.90
28654;DHT22;24320;56.980;24.336;2023-03-09T12:03:54;0.40;99.90
28654;DHT22;24320;56.980;24.336;2023-03-09T12:09:06;0.20;99.90
28654;DHT22;24320;56.980;24.336;2023-03-09T12:11:41;0.10;99.90
28654;DHT22;24320;56.980;24.336;2023-03-09T12:14:23;0.10;99.90
28654;DHT22;24320;56.980;24.336;2023-03-09T12:16:54;0.20;99.90
28654;DHT22;24320;56.980;24.336;2023-03-09T12:19:26;0.20;99.90
28654;DHT22;24320;56.980;24.336;2023-03-09T12:24:52;0.20;99.90
28654;DHT22;24320;56.980;24.336;2023-03-09T12:27:25;0.20;99.90
28654;DHT22;24320;56.980;24.336;2023-03-09T12:30:23;0.20;99.90
28654;DHT22;24320;56.980;24.336;2023-03-09T12:32:51;0.10;99.90
28654;DHT22;24320;56.980;24.336;2023-03-09T12:45:45;0.50;99.90
28654;DHT22;24320;56.980;24.336;2023-03-09T12:48:28;0.70;99.90
28654;DHT22;24320;56.980;24.336;2023-03-09T12:51:10;0.90;99.90
28654;DHT22;24320;56.980;24.336;2023-03-09T12:54:05;1.10;99.70
28654;DHT22;24320;56.980;24.336;2023-03-09T12:56:34;1.00;98.30
28654;DHT22;24320;56.980;24.336;2023-03-09T12:59:07;0.80;95.80
28654;DHT22;24320;56.980;24.336;2023-03-09T13:01:35;0.70;94.60
28654;DHT22;24320;56.980;24.336;2023-03-09T13:06:39;0.50;95.10
28654;DHT22;24320;56.980;24.336;2023-03-09T13:16:58;0.40;94.50
28654;DHT22;24320;56.980;24.336;2023-03-09T13:24:37;0.30;95.30
28654;DHT22;24320;56.980;24.336;2023-03-09T13:32:38;0.30;94.00
28654;DHT22;24320;56.980;24.336;2023-03-09T13:35:38;0.30;94.20
28654;DHT22;24320;56.980;24.336;2023-03-09T13:38:17;0.40;91.70
28654;DHT22;24320;56.980;24.336;2023-03-09T13:40:52;0.20;92.00
28654;DHT22;24320;56.980;24.336;2023-03-09T13:43:25;0.10;91.90
28654;DHT22;24320;56.980;24.336;2023-03-09T13:45:58;0.10;92.80
28654;DHT22;24320;56.980;24.336;2023-03-09T13:48:29;0.00;92.20
28654;DHT22;24320;56.980;24.336;2023-03-09T13:50:56;0.10;92.80
28654;DHT22;24320;56.980;24.336;2023-03-09T13:53:25;0.20;92.10
28654;DHT22;24320;56.980;24.336;2023-03-09T13:56:05;0.20;92.10
28654;DHT22;24320;56.980;24.336;2023-03-09T13:58:43;0.20;89.00
28654;DHT22;24320;56.980;24.336;2023-03-09T14:01:22;0.10;90.90
28654;DHT22;24320;56.980;24.336;2023-03-09T14:03:52;0.00;92.10
28654;DHT22;24320;56.980;24.336;2023-03-09T14:06:32;-0.10;92.90
28654;DHT22;24320;56.980;24.336;2023-03-09T14:09:48;-0.10;94.50
28654;DHT22;24320;56.980;24.336;2023-03-09T14:12:36;0.00;92.60
28654;DHT22;24320;56.980;24.336;2023-03-09T14:15:16;0.00;90.40
28654;DHT22;24320;56.980;24.336;2023-03-09T14:17:44;0.00;90.80
28654;DHT22;24320;56.980;24.336;2023-03-09T14:20:20;0.00;91.10
28654;DHT22;24320;56.980;24.336;2023-03-09T14:22:48;-0.10;91.90
28654;DHT22;24320;56.980;24.336;2023-03-09T14:27:52;-0.20;92.20
28654;DHT22;24320;56.980;24.336;2023-03-09T14:30:35;-0.30;92.50
28654;DHT22;24320;56.980;24.336;2023-03-09T14:33:28;-0.40;92.60
28654;DHT22;24320;56.980;24.336;2023-03-09T14:36:07;-0.50;93.10
28654;DHT22;24320;56.980;24.336;2023-03-09T14:38:35;-0.50;93.20
28654;DHT22;24320;56.980;24.336;2023-03-09T14:41:16;-0.50;92.50
28654;DHT22;24320;56.980;24.336;2023-03-09T14:43:45;-0.60;93.50
28654;DHT22;24320;56.980;24.336;2023-03-09T14:46:19;-0.70;93.30
28654;DHT22;24320;56.980;24.336;2023-03-09T14:48:52;-0.70;94.00
28654;DHT22;24320;56.980;24.336;2023-03-09T14:51:26;-0.70;94.60
28654;DHT22;24320;56.980;24.336;2023-03-09T14:56:30;-0.80;94.20
28654;DHT22;24320;56.980;24.336;2023-03-09T14:59:03;-0.80;93.90
28654;DHT22;24320;56.980;24.336;2023-03-09T15:01:36;-0.90;94.10
28654;DHT22;24320;56.980;24.336;2023-03-09T15:04:24;-0.90;94.20
28654;DHT22;24320;56.980;24.336;2023-03-09T15:06:51;-1.00;94.80
28654;DHT22;24320;56.980;24.336;2023-03-09T15:09:19;-1.20;95.30
28654;DHT22;24320;56.980;24.336;2023-03-09T15:11:46;-1.30;95.40
28654;DHT22;24320;56.980;24.336;2023-03-09T15:17:01;-1.70;96.10
28654;DHT22;24320;56.980;24.336;2023-03-09T15:19:28;-1.80;96.70
28654;DHT22;24320;56.980;24.336;2023-03-09T15:21:57;-2.00;97.20
28654;DHT22;24320;56.980;24.336;2023-03-09T15:24:28;-2.00;96.30
28654;DHT22;24320;56.980;24.336;2023-03-09T15:26:59;-2.10;96.90
28654;DHT22;24320;56.980;24.336;2023-03-09T15:29:26;-2.30;97.50
28654;DHT22;24320;56.980;24.336;2023-03-09T15:31:53;-2.40;97.30
28654;DHT22;24320;56.980;24.336;2023-03-09T15:34:20;-2.40;97.10
28654;DHT22;24320;56.980;24.336;2023-03-09T15:36:48;-2.60;97.00
28654;DHT22;24320;56.980;24.336;2023-03-09T15:39:14;-2.70;97.30
28654;DHT22;24320;56.980;24.336;2023-03-09T15:41:41;-2.80;97.60
28654;DHT22;24320;56.980;24.336;2023-03-09T15:44:08;-2.90;98.30
28654;DHT22;24320;56.980;24.336;2023-03-09T15:46:35;-3.10;98.70
28654;DHT22;24320;56.980;24.336;2023-03-09T15:49:07;-3.20;99.30
28654;DHT22;24320;56.980;24.336;2023-03-09T15:51:34;-3.30;99.90
28654;DHT22;24320;56.980;24.336;2023-03-09T15:54:03;-3.40;99.90
28654;DHT22;24320;56.980;24.336;2023-03-09T15:56:31;-3.50;99.90
28654;DHT22;24320;56.980;24.336;2023-03-09T15:58:58;-3.70;99.90
28654;DHT22;24320;56.980;24.336;2023-03-09T16:01:25;-3.90;99.90
28654;DHT22;24320;56.980;24.336;2023-03-09T16:03:54;-4.00;99.90
28654;DHT22;24320;56.980;24.336;2023-03-09T16:06:25;-4.20;99.90
28654;DHT22;24320;56.980;24.336;2023-03-09T16:08:52;-4.40;99.90
28654;DHT22;24320;56.980;24.336;2023-03-09T16:11:19;-4.50;99.90
28654;DHT22;24320;56.980;24.336;2023-03-09T16:13:47;-4.70;99.90
28654;DHT22;24320;56.980;24.336;2023-03-09T16:16:14;-4.90;99.90
28654;DHT22;24320;56.980;24.336;2023-03-09T16:18:42;-5.00;99.90
28654;DHT22;24320;56.980;24.336;2023-03-09T16:21:09;-5.10;99.90
28654;DHT22;24320;56.980;24.336;2023-03-09T16:23:36;-5.20;99.90
28654;DHT22;24320;56.980;24.336;2023-03-09T16:26:03;-5.30;99.90
28654;DHT22;24320;56.980;24.336;2023-03-09T16:28:30;-5.50;99.90
28654;DHT22;24320;56.980;24.336;2023-03-09T16:30:57;-5.60;99.90
28654;DHT22;24320;56.980;24.336;2023-03-09T16:33:24;-5.70;99.90
28654;DHT22;24320;56.980;24.336;2023-03-09T16:35:58;-5.70;99.90
28654;DHT22;24320;56.980;24.336;2023-03-09T16:38:26;-5.80;99.90
28654;DHT22;24320;56.980;24.336;2023-03-09T16:40:53;-5.90;99.90
28654;DHT22;24320;56.980;24.336;2023-03-09T16:43:20;-6.00;99.90
28654;DHT22;24320;56.980;24.336;2023-03-09T16:45:55;-6.10;99.90
28654;DHT22;24320;56.980;24.336;2023-03-09T16:48:29;-6.20;99.90
28654;DHT22;24320;56.980;24.336;2023-03-09T16:50:58;-6.50;99.90
28654;DHT22;24320;56.980;24.336;2023-03-09T16:53:27;-6.70;99.90
28654;DHT22;24320;56.980;24.336;2023-03-09T16:55:56;-6.80;99.90
28654;DHT22;24320;56.980;24.336;2023-03-09T16:58:23;-6.90;99.90
28654;DHT22;24320;56.980;24.336;2023-03-09T17:00:50;-7.00;99.90
28654;DHT22;24320;56.980;24.336;2023-03-09T17:03:18;-7.20;99.90
28654;DHT22;24320;56.980;24.336;2023-03-09T17:05:45;-7.20;99.90